Time;durP1;ratioP1;P1;durP2;ratioP2;P2;SDS_P1;SDS_P2;PMS_P1;PMS_P2;Temp;Humidity;BMP_temperature;BMP_pressure;BME280_temperature;BME280_humidity;BME280_pressure;Samples;Min_cycle;Max_cycle;Signal;HPM_P1;HPM_P2
2023/06/08 00:02:45;;;;;;;21.30;16.08;;;;;;;16.58;100.00;100301.13;5593938;31;33816;-67
2023/06/08 00:05:53;;;;;;;21.75;16.23;;;;;;;16.60;100.00;100304.47;5607431;31;33492;-68
2023/06/08 00:09:01;;;;;;;23.30;16.37;;;;;;;16.57;100.00;100302.97;5567468;32;35352;-68
2023/06/08 00:12:08;;;;;;;25.23;16.92;;;;;;;16.58;100.00;100295.78;5567332;32;34066;-68
2023/06/08 00:15:13;;;;;;;24.08;17.48;;;;;;;16.58;100.00;100293.09;5567498;32;34448;-67
2023/06/08 00:18:20;;;;;;;23.27;16.95;;;;;;;16.60;100.00;100296.44;5567342;32;33960;-68
2023/06/08 00:21:29;;;;;;;22.80;16.58;;;;;;;16.59;100.00;100294.78;5567385;32;33976;-68
2023/06/08 00:24:38;;;;;;;25.17;17.20;;;;;;;16.57;100.00;100291.44;5567225;32;33784;-67
2023/06/08 00:27:46;;;;;;;21.67;17.07;;;;;;;16.55;100.00;100289.00;5567270;32;34566;-68
2023/06/08 00:30:54;;;;;;;20.77;16.80;;;;;;;16.55;100.00;100290.84;5567428;32;33623;-68
2023/06/08 00:34:01;;;;;;;21.65;16.98;;;;;;;16.51;100.00;100277.84;5567317;32;33883;-68
2023/06/08 00:37:08;;;;;;;21.60;16.85;;;;;;;16.55;100.00;100283.63;5567218;32;34007;-67
2023/06/08 00:40:16;;;;;;;25.70;17.58;;;;;;;16.52;100.00;100284.84;5580407;31;34059;-68
2023/06/08 00:43:26;;;;;;;25.65;18.62;;;;;;;16.55;100.00;100285.47;5586663;31;34125;-67
2023/06/08 00:46:32;;;;;;;25.77;18.48;;;;;;;16.51;100.00;100277.03;5586804;31;34366;-67
2023/06/08 00:49:40;;;;;;;28.77;18.73;;;;;;;16.48;100.00;100283.63;5586613;31;34283;-68
2023/06/08 00:52:47;;;;;;;26.85;18.10;;;;;;;16.48;100.00;100278.28;5586702;31;33921;-67
2023/06/08 00:55:57;;;;;;;26.85;19.45;;;;;;;16.47;100.00;100281.97;5586587;31;34531;-67
2023/06/08 00:59:03;;;;;;;25.25;19.37;;;;;;;16.51;100.00;100280.53;5586556;31;33818;-68
2023/06/08 01:02:10;;;;;;;24.70;18.25;;;;;;;16.61;100.00;100284.66;5585599;31;34494;-67
2023/06/08 01:05:16;;;;;;;26.98;18.75;;;;;;;16.59;100.00;100281.37;5586312;31;34003;-67
2023/06/08 01:08:48;;;;;;;26.40;19.25;;;;;;;16.57;100.00;100280.72;5586411;31;34429;-67
2023/06/08 01:12:29;;;;;;;25.10;18.50;;;;;;;16.61;100.00;100281.97;5585431;31;34501;-67
2023/06/08 01:15:43;;;;;;;26.67;17.98;;;;;;;16.61;100.00;100295.38;5586140;31;34034;-67
2023/06/08 01:18:58;;;;;;;25.45;17.92;;;;;;;16.63;100.00;100288.78;5586529;31;33891;-67
2023/06/08 01:22:14;;;;;;;27.80;18.30;;;;;;;16.61;100.00;100279.31;5586176;31;34318;-67
2023/06/08 01:25:31;;;;;;;27.77;18.85;;;;;;;16.66;100.00;100287.53;5585862;31;33904;-67
2023/06/08 01:28:39;;;;;;;25.90;17.95;;;;;;;16.68;100.00;100288.16;5586088;31;34201;-67
2023/06/08 01:31:49;;;;;;;25.98;18.48;;;;;;;16.69;100.00;100285.28;5586018;31;34500;-67
2023/06/08 01:34:58;;;;;;;25.60;18.35;;;;;;;16.76;100.00;100285.25;5586051;31;33558;-67
2023/06/08 01:38:15;;;;;;;;;;;;;;;16.77;100.00;100282.38;5586325;31;34361;-67
2023/06/08 01:41:26;;;;;;;23.85;17.33;;;;;;;16.74;100.00;100284.66;5585915;31;34863;-67
2023/06/08 01:44:56;;;;;;;22.55;17.30;;;;;;;16.88;100.00;100291.63;5585706;31;34026;-67
2023/06/08 01:48:06;;;;;;;26.55;17.25;;;;;;;16.87;100.00;100285.44;5586565;31;34120;-67
2023/06/08 01:51:16;;;;;;;21.98;17.05;;;;;;;16.87;100.00;100293.47;5588167;31;34509;-67
2023/06/08 01:54:22;;;;;;;27.23;17.20;;;;;;;16.92;100.00;100282.13;5588220;31;34332;-67
2023/06/08 01:57:29;;;;;;;22.58;17.17;;;;;;;16.85;100.00;100289.34;5588233;31;34084;-67
2023/06/08 02:00:38;;;;;;;27.25;16.60;;;;;;;16.80;100.00;100295.34;5587975;31;34608;-67
2023/06/08 02:03:46;;;;;;;24.05;16.67;;;;;;;16.85;100.00;100292.84;5588004;31;34533;-67
2023/06/08 02:06:52;;;;;;;19.95;15.77;;;;;;;16.86;100.00;100289.13;5588160;31;34096;-67
2023/06/08 02:10:00;;;;;;;22.25;16.05;;;;;;;16.94;100.00;100283.53;5588059;31;34004;-68
2023/06/08 02:13:07;;;;;;;20.33;16.10;;;;;;;16.97;100.00;100290.34;5588159;31;33816;-67
2023/06/08 02:16:18;;;;;;;21.10;15.57;;;;;;;17.00;100.00;100295.28;5587981;31;34406;-68
2023/06/08 02:19:26;;;;;;;19.52;15.48;;;;;;;17.04;100.00;100293.81;5587959;31;34121;-67
2023/06/08 02:22:35;;;;;;;20.98;15.55;;;;;;;17.05;100.00;100290.09;5588008;31;33819;-67
2023/06/08 02:25:42;;;;;;;20.58;16.05;;;;;;;16.98;100.00;100289.31;5586939;31;34669;-67
2023/06/08 02:28:51;;;;;;;20.05;15.48;;;;;;;17.01;100.00;100282.69;5587939;31;34283;-67
2023/06/08 02:32:02;;;;;;;20.17;15.90;;;;;;;16.98;100.00;100288.50;5587812;31;33989;-67
2023/06/08 02:35:09;;;;;;;22.20;16.62;;;;;;;16.92;100.00;100288.31;5587070;31;33927;-68
2023/06/08 02:38:17;;;;;;;20.88;16.62;;;;;;;16.95;100.00;100292.41;5586606;31;34335;-68
2023/06/08 02:41:23;;;;;;;24.50;17.17;;;;;;;16.94;100.00;100288.09;5587770;31;33584;-67
2023/06/08 02:44:30;;;;;;;22.73;17.52;;;;;;;16.92;100.00;100290.16;5587754;31;33890;-67
2023/06/08 02:47:38;;;;;;;24.92;17.73;;;;;;;16.97;100.00;100286.84;5587811;31;33620;-67
2023/06/08 02:50:48;;;;;;;21.65;16.50;;;;;;;16.97;100.00;100276.94;5587539;31;34786;-67
2023/06/08 02:53:57;;;;;;;25.08;17.40;;;;;;;16.98;100.00;100272.41;5587690;31;33852;-67
2023/06/08 02:57:07;;;;;;;24.08;17.48;;;;;;;16.93;100.00;100279.25;5585876;31;33837;-67
2023/06/08 03:00:15;;;;;;;22.83;18.35;;;;;;;17.01;100.00;100274.66;5586846;31;34542;-67
2023/06/08 03:03:23;;;;;;;22.37;18.02;;;;;;;16.91;100.00;100275.94;5587440;31;34519;-67
2023/06/08 03:06:33;;;;;;;23.58;18.12;;;;;;;16.91;100.00;100267.91;5587828;31;33734;-67
2023/06/08 03:09:47;;;;;;;25.05;18.55;;;;;;;16.95;100.00;100270.97;5587100;31;33967;-67
2023/06/08 03:12:53;;;;;;;24.60;18.73;;;;;;;16.97;100.00;100266.22;5587586;31;33575;-68
2023/06/08 03:16:06;;;;;;;23.23;17.80;;;;;;;16.93;100.00;100281.91;5587651;31;34828;-67
2023/06/08 03:19:13;;;;;;;24.83;18.37;;;;;;;17.00;100.00;100276.50;5587426;31;33693;-68
2023/06/08 03:22:24;;;;;;;24.17;18.45;;;;;;;17.00;100.00;100279.19;5587335;31;33914;-68
2023/06/08 03:25:31;;;;;;;24.08;18.45;;;;;;;17.02;100.00;100271.78;5587542;31;33860;-68
2023/06/08 03:28:38;;;;;;;24.70;18.87;;;;;;;17.10;100.00;100276.06;5587555;31;34010;-68
2023/06/08 03:31:46;;;;;;;27.15;17.80;;;;;;;17.16;100.00;100270.69;5587500;31;33931;-68
2023/06/08 03:34:53;;;;;;;23.05;17.58;;;;;;;17.09;100.00;100271.75;5587223;31;34507;-68
2023/06/08 03:38:01;;;;;;;24.65;17.85;;;;;;;17.13;100.00;100275.66;5586627;31;33759;-68
2023/06/08 03:41:13;;;;;;;23.50;17.35;;;;;;;17.15;100.00;100277.06;5587423;31;33663;-68
2023/06/08 03:44:21;;;;;;;19.58;16.17;;;;;;;17.14;100.00;100279.97;5586490;31;34629;-68
2023/06/08 03:47:26;;;;;;;22.98;16.35;;;;;;;17.19;100.00;100283.66;5587281;31;34549;-68
2023/06/08 03:50:34;;;;;;;26.23;16.15;;;;;;;17.21;100.00;100275.41;5587005;31;34420;-67
2023/06/08 03:53:40;;;;;;;22.75;16.95;;;;;;;17.25;100.00;100277.44;5586736;31;34363;-68
2023/06/08 03:56:46;;;;;;;22.15;16.80;;;;;;;17.24;100.00;100285.69;5587248;31;34282;-68
2023/06/08 03:59:52;;;;;;;22.17;16.40;;;;;;;17.32;100.00;100288.16;5587130;31;34353;-67
2023/06/08 04:03:00;;;;;;;22.42;16.30;;;;;;;17.43;100.00;100287.44;5587151;31;34830;-67
2023/06/08 04:06:10;;;;;;;23.42;15.70;;;;;;;17.56;100.00;100294.63;5587001;31;33940;-68
2023/06/08 04:09:17;;;;;;;20.52;15.82;;;;;;;17.66;100.00;100290.47;5586963;31;33863;-68
2023/06/08 04:12:23;;;;;;;20.45;16.90;;;;;;;17.54;100.00;100284.09;5586887;31;33885;-68
2023/06/08 04:15:29;;;;;;;23.15;15.77;;;;;;;17.52;100.00;100291.56;5587067;31;33950;-68
2023/06/08 04:18:40;;;;;;;25.25;15.80;;;;;;;17.58;100.00;100293.34;5584907;31;34563;-68
2023/06/08 04:21:48;;;;;;;21.30;15.68;;;;;;;17.63;100.00;100293.56;5571158;31;34404;-68
2023/06/08 04:24:55;;;;;;;19.00;15.00;;;;;;;17.72;100.00;100286.91;5567179;32;34902;-68
2023/06/08 04:28:00;;;;;;;17.87;13.93;;;;;;;17.85;100.00;100288.69;5567319;32;34598;-68
2023/06/08 04:31:08;;;;;;;18.65;14.38;;;;;;;17.96;100.00;100293.34;5566876;32;33565;-68
2023/06/08 04:34:16;;;;;;;20.73;13.93;;;;;;;18.03;100.00;100295.97;5567034;32;34637;-68
2023/06/08 04:37:24;;;;;;;18.02;14.52;;;;;;;18.11;100.00;100290.34;5567001;32;35549;-68
2023/06/08 04:40:33;;;;;;;15.90;13.75;;;;;;;17.84;100.00;100299.62;5567163;32;33764;-68
2023/06/08 04:43:44;;;;;;;17.83;13.80;;;;;;;17.91;100.00;100298.53;5567119;32;34535;-68
2023/06/08 04:46:50;;;;;;;20.75;14.05;;;;;;;18.09;100.00;100298.63;5566510;32;33771;-68
2023/06/08 04:49:58;;;;;;;18.77;13.52;;;;;;;17.95;100.00;100290.88;5571198;31;33716;-68
2023/06/08 04:53:05;;;;;;;19.02;14.13;;;;;;;18.08;100.00;100290.78;5585845;31;33877;-68
2023/06/08 04:56:18;;;;;;;20.30;13.35;;;;;;;18.23;100.00;100300.16;5586202;31;34104;-68
2023/06/08 04:59:26;;;;;;;18.70;13.27;;;;;;;18.14;100.00;100303.34;5586354;31;34537;-68
2023/06/08 05:02:32;;;;;;;16.10;12.82;;;;;;;18.09;100.00;100300.50;5586137;31;34578;-69
2023/06/08 05:05:37;;;;;;;16.62;13.15;;;;;;;18.17;100.00;100308.25;5586250;31;34289;-68
2023/06/08 05:08:42;;;;;;;15.95;12.57;;;;;;;18.28;100.00;100304.87;5586046;31;33817;-69
2023/06/08 05:11:47;;;;;;;17.80;12.20;;;;;;;18.31;100.00;100304.41;5572536;31;33682;-69
2023/06/08 05:14:51;;;;;;;15.98;12.95;;;;;;;18.11;100.00;100311.81;5585982;31;33770;-68
2023/06/08 05:17:55;;;;;;;16.83;12.13;;;;;;;18.18;100.00;100313.44;5586319;31;34765;-69
2023/06/08 05:21:02;;;;;;;14.38;12.55;;;;;;;18.24;100.00;100319.78;5585927;31;33833;-68
2023/06/08 05:24:07;;;;;;;17.00;12.30;;;;;;;18.43;100.00;100315.28;5583447;31;33764;-68
2023/06/08 05:27:12;;;;;;;17.23;12.30;;;;;;;18.33;100.00;100314.97;5580139;31;34071;-69
2023/06/08 05:30:16;;;;;;;16.87;11.90;;;;;;;18.36;100.00;100318.00;5582930;31;33588;-69
2023/06/08 05:33:21;;;;;;;16.23;12.80;;;;;;;18.54;100.00;100318.09;5580989;31;33883;-67
2023/06/08 05:36:26;;;;;;;20.35;13.77;;;;;;;18.60;100.00;100313.69;5570033;31;33690;-69
2023/06/08 05:39:30;;;;;;;19.80;13.57;;;;;;;18.50;100.00;100310.66;5585232;31;33705;-69
2023/06/08 05:42:34;;;;;;;22.30;15.02;;;;;;;18.55;100.00;100311.66;5581021;31;34021;-70
2023/06/08 05:45:38;;;;;;;21.05;15.75;;;;;;;18.41;100.00;100307.44;5553132;31;33697;-69
2023/06/08 05:48:43;;;;;;;19.35;15.93;;;;;;;18.50;100.00;100316.84;5579809;31;34147;-69
2023/06/08 05:51:48;;;;;;;21.17;16.23;;;;;;;18.39;100.00;100312.22;5565615;32;33922;-69
2023/06/08 05:54:52;;;;;;;23.38;16.90;;;;;;;18.50;100.00;100303.41;5562836;32;33702;-69
2023/06/08 05:57:56;;;;;;;21.37;17.05;;;;;;;18.64;100.00;100315.72;5562648;32;34107;-69
2023/06/08 06:01:04;;;;;;;21.35;16.83;;;;;;;18.86;100.00;100299.16;5564940;32;33872;-68
2023/06/08 06:04:09;;;;;;;21.33;16.92;;;;;;;19.11;100.00;100313.38;5564509;32;33949;-68
2023/06/08 06:07:35;;;;;;;23.58;18.87;;;;;;;18.97;100.00;100304.63;5550605;32;34543;-68
2023/06/08 06:10:38;;;;;;;23.12;17.20;;;;;;;18.82;100.00;100314.09;5561896;32;33871;-68
2023/06/08 06:13:41;;;;;;;21.70;17.08;;;;;;;18.76;100.00;100312.31;5564656;32;33843;-68
2023/06/08 06:16:45;;;;;;;19.90;16.83;;;;;;;18.86;100.00;100302.69;5565532;32;34621;-68
2023/06/08 06:20:09;;;;;;;22.02;16.52;;;;;;;19.25;100.00;100309.47;5559523;32;34513;-67
2023/06/08 06:23:13;;;;;;;22.92;16.58;;;;;;;19.83;100.00;100314.31;5556907;32;33888;-68
2023/06/08 06:26:17;;;;;;;21.42;18.12;;;;;;;19.77;100.00;100316.03;5545280;32;34456;-67
2023/06/08 06:29:20;;;;;;;23.00;18.17;;;;;;;19.35;100.00;100314.31;5547993;32;34061;-66
2023/06/08 06:32:24;;;;;;;21.87;17.87;;;;;;;19.57;100.00;100320.88;5556538;32;33735;-67
2023/06/08 06:35:28;;;;;;;20.80;16.77;;;;;;;19.87;100.00;100313.59;5566327;32;33663;-67
2023/06/08 06:38:32;;;;;;;23.73;17.80;;;;;;;20.01;100.00;100310.72;5567185;32;32593;-68
2023/06/08 06:41:36;;;;;;;29.27;18.05;;;;;;;19.69;100.00;100310.97;5561338;32;32692;-67
2023/06/08 06:44:43;;;;;;;24.20;17.75;;;;;;;19.47;100.00;100307.12;5566020;32;33451;-67
2023/06/08 06:47:47;;;;;;;24.98;16.90;;;;;;;19.53;100.00;100317.00;5566921;32;34430;-67
2023/06/08 06:50:50;;;;;;;24.77;16.10;;;;;;;19.91;100.00;100313.97;5573591;31;33619;-66
2023/06/08 06:53:54;;;;;;;24.27;17.08;;;;;;;19.64;100.00;100313.53;5587371;31;33789;-67
2023/06/08 06:56:58;;;;;;;24.33;16.85;;;;;;;19.52;100.00;100320.72;5587624;31;34599;-67
2023/06/08 07:00:07;;;;;;;22.10;16.23;;;;;;;19.49;100.00;100323.88;5586926;31;33777;-67
2023/06/08 07:03:11;;;;;;;23.17;16.30;;;;;;;19.54;100.00;100318.66;5583615;31;33898;-66
2023/06/08 07:06:15;;;;;;;20.73;15.43;;;;;;;19.35;100.00;100311.63;5569103;31;35242;-65
2023/06/08 07:09:21;;;;;;;23.92;15.35;;;;;;;19.38;100.00;100303.91;5567599;32;33974;-64
2023/06/08 07:12:25;;;;;;;20.23;15.10;;;;;;;19.43;100.00;100306.75;5567607;32;33754;-64
2023/06/08 07:15:28;;;;;;;28.05;14.95;;;;;;;19.32;100.00;100307.50;5566796;32;33840;-65
2023/06/08 07:18:31;;;;;;;20.80;15.32;;;;;;;19.29;100.00;100307.12;5567734;32;33690;-65
2023/06/08 07:21:39;;;;;;;23.67;16.00;;;;;;;19.15;100.00;100308.34;5568142;32;34798;-65
2023/06/08 07:25:02;;;;;;;23.33;16.20;;;;;;;19.20;100.00;100309.31;5567417;32;33832;-65
2023/06/08 07:28:25;;;;;;;21.85;15.75;;;;;;;19.25;100.00;100312.16;5566939;32;33519;-65
2023/06/08 07:31:28;;;;;;;21.05;16.15;;;;;;;19.52;100.00;100309.97;5567463;32;34792;-64
2023/06/08 07:34:31;;;;;;;25.88;16.83;;;;;;;19.46;100.00;100310.91;5567075;32;34509;-65
2023/06/08 07:37:35;;;;;;;22.30;15.80;;;;;;;19.45;100.00;100314.63;5567168;32;34731;-65
2023/06/08 07:40:38;;;;;;;22.25;15.73;;;;;;;19.65;100.00;100315.19;5567270;32;33767;-65
2023/06/08 07:43:44;;;;;;;22.77;15.60;;;;;;;19.79;100.00;100310.44;5567576;32;33780;-64
2023/06/08 07:46:47;;;;;;;19.73;14.52;;;;;;;19.91;100.00;100316.66;5565190;32;34311;-65
2023/06/08 07:49:52;;;;;;;22.95;15.38;;;;;;;19.98;100.00;100308.50;5579164;31;178299;-65
2023/06/08 07:52:58;;;;;;;21.87;15.02;;;;;;;19.76;100.00;100313.56;5586288;31;33987;-65
2023/06/08 07:56:04;;;;;;;19.50;15.43;;;;;;;19.68;100.00;100311.19;5586969;31;34319;-65
2023/06/08 07:59:08;;;;;;;30.17;15.63;;;;;;;19.53;100.00;100317.00;5586667;31;34514;-65
2023/06/08 08:02:14;;;;;;;23.58;16.30;;;;;;;19.39;100.00;100307.44;5586138;31;34745;-65
2023/06/08 08:05:19;;;;;;;17.80;14.80;;;;;;;19.64;100.00;100315.41;5586770;31;33863;-65
2023/06/08 08:08:23;;;;;;;22.45;15.65;;;;;;;19.54;100.00;100313.25;5586526;31;34566;-65
2023/06/08 08:11:28;;;;;;;23.38;16.98;;;;;;;19.40;100.00;100303.69;5586756;31;33495;-65
2023/06/08 08:14:32;;;;;;;24.92;18.05;;;;;;;19.20;100.00;100312.00;5586595;31;33808;-65
2023/06/08 08:17:35;;;;;;;26.12;18.12;;;;;;;19.14;100.00;100310.22;5586697;31;33867;-65
2023/06/08 08:20:40;;;;;;;21.52;17.45;;;;;;;19.16;100.00;100310.81;5586509;31;34876;-65
2023/06/08 08:23:45;;;;;;;22.65;17.98;;;;;;;19.56;100.00;100308.47;5586475;31;33996;-64
2023/06/08 08:26:53;;;;;;;23.62;17.67;;;;;;;20.05;100.00;100312.72;5586514;31;33918;-65
2023/06/08 08:29:57;;;;;;;22.77;15.55;;;;;;;20.33;100.00;100312.09;5575311;31;34864;-65
2023/06/08 08:33:00;;;;;;;24.73;16.15;;;;;;;20.71;100.00;100309.75;5567055;32;34051;-65
2023/06/08 08:36:05;;;;;;;23.48;16.27;;;;;;;21.03;100.00;100315.56;5566609;32;33822;-65
2023/06/08 08:39:10;;;;;;;25.75;16.30;;;;;;;21.16;100.00;100320.72;5566737;32;34420;-65
2023/06/08 08:42:23;;;;;;;19.70;15.00;;;;;;;21.29;100.00;100308.03;5566705;32;33553;-65
2023/06/08 08:45:31;;;;;;;25.08;15.43;;;;;;;21.29;100.00;100308.03;5566458;32;33524;-65
2023/06/08 08:48:42;;;;;;;17.15;12.40;;;;;;;21.10;100.00;100313.56;5566826;32;34494;-65
2023/06/08 08:51:51;;;;;;;19.52;15.27;;;;;;;20.78;100.00;100309.62;5566999;32;34013;-66
2023/06/08 08:54:57;;;;;;;;;;;;;;;20.35;100.00;100307.28;5566679;32;33932;-66
2023/06/08 08:58:01;;;;;;;15.52;13.80;;;;;;;20.19;100.00;100302.53;5565384;32;34081;-66
2023/06/08 09:01:08;;;;;;;14.02;10.77;;;;;;;20.40;100.00;100299.31;5564665;32;33772;-67
2023/06/08 09:04:11;;;;;;;15.65;11.00;;;;;;;20.53;100.00;100314.44;5566506;32;34126;-67
2023/06/08 09:07:20;;;;;;;9.60;8.48;;;;;;;20.35;100.00;100310.81;5566608;32;34478;-66
2023/06/08 09:10:26;;;;;;;15.50;8.85;;;;;;;20.76;100.00;100306.34;5566342;32;33763;-66
2023/06/08 09:13:34;;;;;;;9.93;8.75;;;;;;;22.07;100.00;100310.88;5566642;32;33753;-65
2023/06/08 09:16:43;;;;;;;18.52;11.98;;;;;;;22.24;100.00;100303.56;5566483;32;33731;-66
2023/06/08 09:19:53;;;;;;;18.35;12.37;;;;;;;22.16;100.00;100303.19;5566528;32;34735;-65
2023/06/08 09:22:57;;;;;;;;;;;;;;;22.34;100.00;100292.09;5566469;32;33868;-67
2023/06/08 09:26:02;;;;;;;14.73;12.13;;;;;;;23.65;100.00;100284.91;5566319;32;34031;-67
2023/06/08 09:29:06;;;;;;;13.75;11.30;;;;;;;24.95;100.00;100286.22;5566321;32;33679;-67
2023/06/08 09:32:13;;;;;;;13.80;11.20;;;;;;;25.88;100.00;100282.44;5553092;32;33945;-66
2023/06/08 09:35:22;;;;;;;15.60;11.00;;;;;;;23.59;100.00;100285.94;5565997;32;33987;-66
2023/06/08 09:38:29;;;;;;;14.10;10.32;;;;;;;25.01;100.00;100288.69;5566147;32;34646;-66
2023/06/08 09:41:33;;;;;;;14.25;10.32;;;;;;;24.85;100.00;100280.69;5566163;32;34519;-66
2023/06/08 09:44:37;;;;;;;13.52;9.63;;;;;;;26.60;100.00;100275.88;5565833;32;33777;-67
2023/06/08 09:47:42;;;;;;;10.43;8.80;;;;;;;27.45;100.00;100275.84;5570017;32;33987;-67
2023/06/08 09:50:46;;;;;;;11.05;8.50;;;;;;;27.86;100.00;100274.47;5570138;31;33319;-69
2023/06/08 09:53:55;;;;;;;10.35;8.75;;;;;;;27.85;99.35;100269.31;5575871;31;33717;-67
2023/06/08 09:57:01;;;;;;;11.93;8.80;;;;;;;27.17;97.33;100267.25;5585638;31;34516;-69
2023/06/08 10:00:17;;;;;;;11.02;8.55;;;;;;;26.61;100.00;100274.78;5585221;31;33980;-68
2023/06/08 10:03:28;;;;;;;9.43;7.90;;;;;;;27.66;94.45;100258.28;5584382;31;33875;-69
2023/06/08 10:06:32;;;;;;;9.05;7.72;;;;;;;27.46;89.66;100261.09;5585236;31;34730;-68
2023/06/08 10:09:37;;;;;;;10.13;7.62;;;;;;;26.75;90.48;100264.13;5586048;31;33821;-69
2023/06/08 10:12:44;;;;;;;10.82;8.02;;;;;;;27.86;87.37;100249.12;5587668;31;34430;-69
2023/06/08 10:15:52;;;;;;;12.48;8.13;;;;;;;27.10;93.14;100241.44;5587929;31;33866;-69
2023/06/08 10:18:59;;;;;;;13.80;8.18;;;;;;;27.10;92.10;100230.53;5586001;31;34445;-69
2023/06/08 10:22:05;;;;;;;11.07;7.45;;;;;;;28.26;81.27;100218.81;5587470;31;34487;-69
2023/06/08 10:25:16;;;;;;;10.30;8.02;;;;;;;30.26;66.75;100222.84;5585885;31;33892;-69
2023/06/08 10:28:20;;;;;;;8.38;7.05;;;;;;;29.18;70.84;100218.53;5587532;31;33524;-70
2023/06/08 10:31:31;;;;;;;8.75;7.37;;;;;;;28.69;71.50;100216.97;5586409;31;35071;-69
2023/06/08 10:34:39;;;;;;;8.38;6.55;;;;;;;27.72;80.16;100212.72;5585994;31;34953;-69
2023/06/08 10:37:44;;;;;;;12.07;7.20;;;;;;;29.02;70.24;100207.00;5580601;31;34014;-68
2023/06/08 10:40:50;;;;;;;7.95;6.18;;;;;;;30.05;65.64;100210.66;5587225;31;34332;-69
2023/06/08 10:44:00;;;;;;;9.70;7.45;;;;;;;27.96;69.70;100195.31;5587353;31;33817;-68
2023/06/08 10:47:08;;;;;;;8.93;7.03;;;;;;;27.47;83.42;100195.44;5587276;31;34858;-68
2023/06/08 10:50:11;;;;;;;9.13;7.10;;;;;;;26.29;96.21;100193.50;5587147;31;34217;-69
2023/06/08 10:53:40;;;;;;;10.98;7.35;;;;;;;25.87;100.00;100187.56;5587368;31;33343;-68
2023/06/08 10:56:46;;;;;;;;;;;;;;;25.00;100.00;100183.09;5587457;31;33813;-68
2023/06/08 11:00:26;;;;;;;7.90;6.80;;;;;;;23.58;100.00;100184.91;5587379;31;35061;-66
2023/06/08 11:03:46;;;;;;;20.70;6.93;;;;;;;23.47;100.00;100177.78;5585877;31;34619;-66
2023/06/08 11:06:50;;;;;;;19.12;9.50;;;;;;;23.21;100.00;100178.59;5568526;31;34254;-69
2023/06/08 11:09:53;;;;;;;16.50;8.65;;;;;;;21.95;100.00;100181.28;5570540;31;34576;-67
2023/06/08 11:13:10;;;;;;;15.88;8.05;;;;;;;20.93;100.00;100177.81;5567861;31;34012;-68
2023/06/08 11:16:19;;;;;;;9.50;7.53;;;;;;;20.35;100.00;100189.56;5569320;31;33837;-71
2023/06/08 11:19:24;;;;;;;16.40;8.75;;;;;;;20.21;100.00;100193.53;5567958;31;33761;-72
2023/06/08 11:22:27;;;;;;;21.65;9.45;;;;;;;20.11;100.00;100189.78;5574779;31;33849;-75
2023/06/08 11:25:31;;;;;;;30.23;12.02;;;;;;;19.96;100.00;100187.53;5587531;31;34345;-71
2023/06/08 11:28:35;;;;;;;29.67;12.45;;;;;;;19.99;100.00;100192.47;5586265;31;33982;-69
2023/06/08 11:31:44;;;;;;;36.58;12.93;;;;;;;20.53;100.00;100199.34;5570952;31;34418;-69
2023/06/08 11:34:49;;;;;;;15.95;9.15;;;;;;;20.75;100.00;100194.16;5577460;31;34001;-69
2023/06/08 11:37:59;;;;;;;21.70;10.10;;;;;;;19.96;100.00;100203.69;5567752;32;33784;-68
2023/06/08 11:41:02;;;;;;;20.17;10.45;;;;;;;19.96;100.00;100188.38;5568354;31;34623;-69
2023/06/08 11:44:08;;;;;;;15.35;9.90;;;;;;;19.79;100.00;100186.59;5569254;31;34319;-68
2023/06/08 11:47:11;;;;;;;14.98;11.15;;;;;;;19.60;100.00;100179.66;5587286;31;34111;-68
2023/06/08 11:50:16;;;;;;;14.43;11.25;;;;;;;19.77;100.00;100180.63;5585629;31;34507;-67
2023/06/08 11:53:22;;;;;;;16.77;11.55;;;;;;;19.85;100.00;100172.19;5567329;32;34536;-66
2023/06/08 11:56:33;;;;;;;15.93;12.40;;;;;;;19.97;100.00;100167.66;5567341;32;34504;-66
2023/06/08 11:59:36;;;;;;;19.10;11.65;;;;;;;20.40;100.00;100161.91;5567577;32;33793;-66
2023/06/08 12:02:40;;;;;;;17.02;11.75;;;;;;;20.76;100.00;100163.47;5581681;31;33615;-66
2023/06/08 12:05:44;;;;;;;14.10;10.18;;;;;;;20.85;100.00;100161.19;5574070;31;33572;-65
2023/06/08 12:08:50;;;;;;;13.27;9.18;;;;;;;20.88;100.00;100148.03;5568142;31;33920;-66
2023/06/08 12:11:54;;;;;;;7.85;6.78;;;;;;;21.10;100.00;100146.31;5566917;32;34642;-67
2023/06/08 12:14:58;;;;;;;8.45;6.60;;;;;;;21.32;100.00;100148.34;5566908;32;34139;-66
2023/06/08 12:18:03;;;;;;;6.47;5.00;;;;;;;21.98;100.00;100155.63;5566939;31;34824;-66
2023/06/08 12:21:10;;;;;;;9.85;5.50;;;;;;;22.46;100.00;100154.97;5566852;32;34649;-66
2023/06/08 12:24:15;;;;;;;9.77;4.60;;;;;;;22.68;100.00;100155.78;5571311;31;33893;-66
2023/06/08 12:27:19;;;;;;;8.25;5.78;;;;;;;22.96;100.00;100157.47;5585167;31;34383;-67
2023/06/08 12:30:26;;;;;;;7.28;5.60;;;;;;;22.68;100.00;100155.78;5585191;31;33677;-68
2023/06/08 12:33:30;;;;;;;6.93;4.90;;;;;;;22.86;100.00;100149.25;5571366;31;34704;-68
2023/06/08 12:36:35;;;;;;;7.90;5.22;;;;;;;22.66;100.00;100151.69;5586120;31;34541;-67
2023/06/08 12:39:38;;;;;;;7.05;4.82;;;;;;;23.46;100.00;100145.56;5584995;31;33845;-67
2023/06/08 12:42:46;;;;;;;9.05;5.35;;;;;;;22.45;100.00;100146.06;5565273;32;34705;-67
2023/06/08 12:45:50;;;;;;;10.73;5.97;;;;;;;22.91;100.00;100135.78;5567689;31;33837;-65
2023/06/08 12:48:57;;;;;;;9.90;4.80;;;;;;;23.25;100.00;100137.22;5567475;31;33854;-67
2023/06/08 12:52:02;;;;;;;4.75;4.25;;;;;;;22.72;100.00;100145.31;5565532;32;34583;-67
2023/06/08 12:55:08;;;;;;;4.80;3.28;;;;;;;23.00;100.00;100144.25;5566605;32;34048;-66
2023/06/08 12:58:11;;;;;;;8.23;3.78;;;;;;;22.59;100.00;100140.25;5565535;32;33939;-66
2023/06/08 13:01:15;;;;;;;4.55;3.53;;;;;;;24.02;100.00;100133.22;5579829;31;33617;-67
2023/06/08 13:04:18;;;;;;;6.87;4.30;;;;;;;26.12;100.00;100138.59;5586079;31;34608;-66
2023/06/08 13:07:23;;;;;;;6.57;4.20;;;;;;;27.02;100.00;100131.16;5584268;31;33851;-68
2023/06/08 13:10:25;;;;;;;7.85;4.85;;;;;;;26.30;100.00;100138.03;5576547;31;34048;-69
2023/06/08 13:13:31;;;;;;;6.72;5.10;;;;;;;27.44;100.00;100136.06;5574497;31;33772;-69
2023/06/08 13:16:36;;;;;;;7.72;6.20;;;;;;;27.87;89.20;100137.06;5585475;31;33795;-69
2023/06/08 13:19:42;;;;;;;10.15;6.80;;;;;;;26.33;97.09;100158.44;5584836;31;33902;-67
2023/06/08 13:22:45;;;;;;;6.72;5.90;;;;;;;26.38;100.00;100155.69;5585700;31;33042;-67
2023/06/08 13:25:48;;;;;;;6.07;5.18;;;;;;;27.41;96.78;100157.59;5584140;31;34172;-67
2023/06/08 13:28:51;;;;;;;6.93;4.68;;;;;;;26.79;95.33;100153.59;5583398;31;33978;-67
2023/06/08 13:31:56;;;;;;;7.40;5.28;;;;;;;25.17;100.00;100153.00;5585541;31;34365;-67
2023/06/08 13:34:59;;;;;;;9.77;5.50;;;;;;;26.89;100.00;100144.59;5583765;31;33964;-66
2023/06/08 13:38:03;;;;;;;9.02;5.60;;;;;;;28.57;91.76;100148.31;5579064;31;33502;-67
2023/06/08 13:41:09;;;;;;;6.30;4.80;;;;;;;29.28;77.01;100144.63;5577124;31;34121;-66
2023/06/08 13:44:14;;;;;;;6.93;4.57;;;;;;;30.46;66.90;100151.31;5568161;31;34039;-66
2023/06/08 13:47:17;;;;;;;4.90;4.15;;;;;;;30.10;66.29;100142.16;5567410;32;33913;-65
2023/06/08 13:50:22;;;;;;;6.40;4.50;;;;;;;31.27;59.58;100135.87;5570581;31;33857;-66
2023/06/08 13:53:26;;;;;;;5.22;4.12;;;;;;;29.53;65.45;100127.81;5579914;31;33640;-66
2023/06/08 13:56:31;;;;;;;6.20;4.22;;;;;;;30.04;68.03;100124.22;5574719;31;33821;-66
2023/06/08 13:59:35;;;;;;;6.82;4.50;;;;;;;30.36;59.79;100121.38;5578166;31;33613;-65
2023/06/08 14:02:39;;;;;;;10.50;4.40;;;;;;;29.98;61.31;100120.75;5581670;31;34637;-65
2023/06/08 14:05:43;;;;;;;6.50;4.15;;;;;;;29.04;63.26;100119.31;5567058;32;34489;-65
2023/06/08 14:08:45;;;;;;;7.10;4.60;;;;;;;30.96;57.44;100102.03;5574410;31;33828;-66